Time;durP1;ratioP1;P1;durP2;ratioP2;P2;SDS_P1;SDS_P2;PMS_P1;PMS_P2;Temp;Humidity;BMP_temperature;BMP_pressure;BME280_temperature;BME280_humidity;BME280_pressure;Samples;Min_cycle;Max_cycle;Signal;HPM_P1;HPM_P2
2023/03/04 00:01:40;;;;;;;51.33;33.63;;;;;;;5.68;67.74;99608.88;4973936;28;20089;-89
2023/03/04 00:04:06;;;;;;;51.28;32.88;;;;;;;6.21;67.64;99670.28;4975091;28;20039;-89
2023/03/04 00:06:31;;;;;;;47.90;31.52;;;;;;;5.21;68.09;99511.22;4975249;28;20031;-89
2023/03/04 00:08:57;;;;;;;48.05;31.70;;;;;;;6.01;68.07;99664.34;4975042;28;20039;-89
2023/03/04 00:11:22;;;;;;;51.85;33.78;;;;;;;5.64;68.32;99614.53;4974971;28;20051;-88
2023/03/04 00:13:48;;;;;;;45.28;32.10;;;;;;;5.81;68.08;99632.09;4973674;28;20078;-88
2023/03/04 00:16:13;;;;;;;47.97;34.75;;;;;;;5.54;68.04;99595.41;4974437;28;20027;-88
2023/03/04 00:18:38;;;;;;;54.80;36.80;;;;;;;5.45;67.59;99572.72;4974650;28;20034;-88
2023/03/04 00:21:04;;;;;;;50.10;35.65;;;;;;;5.95;68.05;99670.16;4973688;28;20035;-88
2023/03/04 00:23:30;;;;;;;58.10;36.53;;;;;;;6.00;67.31;99678.41;4973392;28;20081;-88
2023/03/04 00:25:55;;;;;;;64.45;36.47;;;;;;;5.92;67.54;99666.00;4974846;28;20038;-88
2023/03/04 00:28:20;;;;;;;57.83;37.33;;;;;;;5.54;67.65;99604.09;4974839;28;20023;-88
2023/03/04 00:30:46;;;;;;;53.53;35.70;;;;;;;5.99;67.53;99689.88;4973351;28;20540;-88
2023/03/04 00:33:11;;;;;;;47.95;33.88;;;;;;;5.09;67.34;99526.25;4974480;28;20515;-88
2023/03/04 00:35:37;;;;;;;53.58;34.78;;;;;;;5.79;67.40;99681.19;4974277;28;20023;-88
2023/03/04 00:38:02;;;;;;;48.53;33.53;;;;;;;5.94;67.77;99697.31;4973243;28;20500;-88
2023/03/04 00:40:27;;;;;;;45.42;31.58;;;;;;;5.29;67.17;99583.81;4973135;28;20494;-87
2023/03/04 00:42:53;;;;;;;44.75;31.17;;;;;;;4.66;67.52;99465.84;4973189;28;20031;-86
2023/03/04 00:45:18;;;;;;;44.83;28.77;;;;;;;5.96;67.47;99692.78;4974388;28;20109;-88
2023/03/04 00:47:44;;;;;;;38.90;26.55;;;;;;;5.29;67.49;99615.22;4974465;28;20102;-88
2023/03/04 00:50:10;;;;;;;35.88;25.48;;;;;;;5.26;67.58;99597.19;4974420;28;20030;-88
2023/03/04 00:52:35;;;;;;;30.42;22.50;;;;;;;5.99;67.58;99702.97;4974462;28;20046;-88
2023/03/04 00:55:01;;;;;;;36.65;24.05;;;;;;;5.69;67.44;99660.28;4974303;28;20023;-87
2023/03/04 00:57:26;;;;;;;38.53;27.05;;;;;;;5.66;67.51;99676.28;4973993;28;20045;-88
2023/03/04 00:59:51;;;;;;;40.97;27.08;;;;;;;5.36;67.61;99639.84;4972895;28;20174;-88
2023/03/04 01:02:17;;;;;;;42.38;28.98;;;;;;;4.96;67.41;99556.34;4974223;28;20154;-88
2023/03/04 01:04:42;;;;;;;45.42;30.52;;;;;;;5.32;67.65;99586.13;4972811;28;20031;-87
2023/03/04 01:07:08;;;;;;;42.95;28.60;;;;;;;5.34;67.40;99597.28;4974079;28;20030;-87
2023/03/04 01:09:33;;;;;;;43.83;28.23;;;;;;;5.84;67.32;99718.28;4974130;28;20038;-87
2023/03/04 01:11:59;;;;;;;40.22;29.27;;;;;;;4.51;67.12;99465.47;4973941;28;20027;-87
2023/03/04 01:14:25;;;;;;;42.42;29.33;;;;;;;6.06;67.22;99709.28;4972688;28;20037;-87
2023/03/04 01:16:50;;;;;;;44.03;31.30;;;;;;;5.70;67.44;99659.31;4973722;28;20035;-87
2023/03/04 01:19:16;;;;;;;44.65;31.02;;;;;;;5.32;67.05;99607.06;4972557;28;20412;-88
2023/03/04 01:21:41;;;;;;;47.60;33.53;;;;;;;5.80;67.40;99682.03;4973932;28;20035;-87
2023/03/04 01:24:07;;;;;;;42.13;30.63;;;;;;;6.05;67.23;99699.75;4973538;28;20034;-87
2023/03/04 01:26:32;;;;;;;42.95;31.58;;;;;;;5.43;67.23;99612.97;4972345;28;20019;-87
2023/03/04 01:28:58;;;;;;;42.33;28.42;;;;;;;5.71;67.34;99642.63;4972694;28;20138;-87
2023/03/04 01:31:23;;;;;;;42.65;30.30;;;;;;;4.88;67.04;99549.19;4972449;28;20033;-87
2023/03/04 01:33:49;;;;;;;38.65;28.45;;;;;;;5.95;67.34;99672.78;4973821;28;20031;-87
2023/03/04 01:36:14;;;;;;;41.38;30.02;;;;;;;5.41;67.16;99603.59;4973345;28;20035;-87
2023/03/04 01:38:40;;;;;;;39.78;28.27;;;;;;;5.75;67.57;99654.47;4972041;28;20019;-87
2023/03/04 01:41:06;;;;;;;39.67;29.13;;;;;;;5.55;67.53;99620.63;4973336;28;20052;-87
2023/03/04 01:43:34;;;;;;;38.35;27.60;;;;;;;5.29;67.38;99591.66;4973182;28;20030;-87
2023/03/04 01:46:00;;;;;;;36.78;26.95;;;;;;;5.64;67.60;99619.78;4972082;28;20026;-87
2023/03/04 01:48:37;;;;;;;39.20;27.83;;;;;;;6.08;67.49;99686.38;4973648;28;20027;-88
2023/03/04 01:51:13;;;;;;;36.35;27.58;;;;;;;6.11;67.00;99678.22;4973284;28;20046;-87
2023/03/04 01:53:38;;;;;;;39.05;27.95;;;;;;;5.58;67.29;99597.59;4971935;28;20110;-86
2023/03/04 01:56:34;;;;;;;36.40;27.42;;;;;;;6.07;67.62;99687.34;4973112;28;20101;-87
2023/03/04 01:59:08;;;;;;;37.67;26.52;;;;;;;6.05;67.25;99697.97;4972776;28;20440;-87
2023/03/04 02:01:35;;;;;;;40.90;28.60;;;;;;;6.09;67.53;99687.19;4971898;28;20030;-87
2023/03/04 02:04:00;;;;;;;39.85;27.92;;;;;;;5.47;67.22;99594.34;4971991;28;20081;-87
2023/03/04 02:06:26;;;;;;;38.45;27.83;;;;;;;5.14;67.56;99541.53;4973006;28;20031;-87
2023/03/04 02:08:51;;;;;;;39.10;27.45;;;;;;;4.35;67.20;99418.97;4972803;28;20421;-86
2023/03/04 02:11:17;;;;;;;38.20;27.27;;;;;;;5.81;67.87;99662.72;4972860;28;20488;-87
2023/03/04 02:13:42;;;;;;;42.55;27.83;;;;;;;5.27;67.80;99560.38;4972752;28;20100;-87
2023/03/04 02:16:08;;;;;;;35.90;25.85;;;;;;;5.68;67.98;99650.78;4971616;28;20133;-88
2023/03/04 02:18:33;;;;;;;34.78;26.17;;;;;;;5.81;68.24;99657.47;4972917;28;20651;-88
2023/03/04 02:21:07;;;;;;;40.60;28.60;;;;;;;4.99;67.85;99550.81;4973107;28;20026;-87
2023/03/04 02:26:20;;;;;;;40.78;27.20;;;;;;;5.90;68.06;99682.84;4971483;28;20047;-91
2023/03/04 02:28:49;;;;;;;37.53;26.35;;;;;;;5.74;67.92;99655.44;4972695;28;20053;-90
2023/03/04 02:31:26;;;;;;;37.65;26.60;;;;;;;5.96;67.79;99679.66;4972691;28;20027;-90
2023/03/04 02:33:53;;;;;;;37.55;27.48;;;;;;;5.49;67.88;99595.03;4971395;28;20021;-89
2023/03/04 02:36:20;;;;;;;39.75;26.83;;;;;;;5.60;67.76;99597.47;4972504;28;20039;-91
2023/03/04 02:38:45;;;;;;;38.63;27.80;;;;;;;6.06;68.26;99659.47;4972384;28;20026;-90
2023/03/04 02:41:15;;;;;;;37.65;27.85;;;;;;;5.33;67.79;99559.00;4974055;28;20043;-91
2023/03/04 02:43:40;;;;;;;40.25;29.25;;;;;;;5.17;67.74;99528.16;4976873;28;20029;-91
2023/03/04 02:46:06;;;;;;;43.35;29.42;;;;;;;5.91;68.32;99639.94;4975364;28;20023;-91
2023/03/04 02:48:31;;;;;;;38.72;28.60;;;;;;;5.30;67.99;99536.53;4976698;28;20023;-91
2023/03/04 02:50:56;;;;;;;38.03;26.50;;;;;;;5.16;67.97;99499.53;4975218;28;20030;-90
2023/03/04 02:53:24;;;;;;;37.53;26.58;;;;;;;5.04;67.77;99470.91;4989418;28;20019;-91
2023/03/04 02:55:49;;;;;;;34.97;26.70;;;;;;;5.58;68.14;99565.34;4994423;28;20026;-91
2023/03/04 02:58:15;;;;;;;34.97;26.73;;;;;;;6.02;68.07;99656.31;4994511;28;20411;-91
2023/03/04 03:00:40;;;;;;;38.28;29.60;;;;;;;5.47;67.79;99571.59;4996030;28;20022;-90
2023/03/04 03:03:06;;;;;;;37.28;28.65;;;;;;;4.76;68.03;99479.72;4994396;28;20025;-91
2023/03/04 03:05:33;;;;;;;37.80;29.13;;;;;;;5.61;68.28;99625.28;4994313;28;20032;-89
2023/03/04 03:07:59;;;;;;;38.15;29.35;;;;;;;5.01;67.78;99538.41;4994385;28;20113;-90
2023/03/04 03:10:25;;;;;;;34.67;27.65;;;;;;;5.88;68.33;99667.22;4995667;28;20093;-89
2023/03/04 03:12:51;;;;;;;40.05;29.52;;;;;;;5.91;68.27;99668.75;4995511;28;20080;-89
2023/03/04 03:15:17;;;;;;;38.17;28.92;;;;;;;5.43;68.04;99583.34;4995372;28;20019;-89
2023/03/04 03:17:42;;;;;;;36.55;27.60;;;;;;;5.07;67.86;99543.06;4995425;28;20161;-89
2023/03/04 03:20:10;;;;;;;40.63;30.73;;;;;;;5.74;67.57;99625.78;4995496;28;20033;-90
2023/03/04 03:22:35;;;;;;;35.03;28.00;;;;;;;6.02;67.62;99677.28;4994104;28;20022;-90
2023/03/04 03:25:01;;;;;;;35.80;27.75;;;;;;;5.76;67.62;99636.94;4995085;28;20042;-90
2023/03/04 03:27:26;;;;;;;41.15;29.83;;;;;;;5.98;67.64;99682.97;4994176;28;20165;-89
2023/03/04 03:29:52;;;;;;;39.72;30.70;;;;;;;5.52;67.51;99595.56;4995267;28;20168;-89
2023/03/04 03:32:17;;;;;;;36.22;28.15;;;;;;;5.43;67.99;99575.47;4995284;28;20026;-90
2023/03/04 03:34:43;;;;;;;66.90;49.90;;;;;;;5.34;67.96;99558.84;4995188;28;20022;-91
2023/03/04 03:37:08;;;;;;;49.40;36.80;;;;;;;5.20;67.43;99527.06;4995285;28;20022;-91
2023/03/04 03:39:33;;;;;;;50.58;34.72;;;;;;;4.96;67.80;99504.00;4995386;28;20107;-90
2023/03/04 03:41:59;;;;;;;54.78;35.28;;;;;;;5.27;67.90;99541.25;4994940;28;20015;-89
2023/03/04 03:44:24;;;;;;;51.00;36.53;;;;;;;5.85;67.82;99645.72;4993660;28;20018;-89
2023/03/04 03:46:49;;;;;;;48.80;36.17;;;;;;;5.88;67.57;99653.31;4994871;28;20388;-91
2023/03/04 03:49:16;;;;;;;51.17;35.63;;;;;;;5.44;67.81;99561.41;4994843;28;20018;-90
2023/03/04 03:51:41;;;;;;;53.90;37.38;;;;;;;5.41;68.01;99562.53;4992478;28;20088;-90
2023/03/04 03:54:07;;;;;;;51.95;36.67;;;;;;;5.88;67.72;99654.13;4994767;28;20011;-90
2023/03/04 03:56:32;;;;;;;52.72;36.92;;;;;;;5.26;67.89;99569.22;4994751;28;20562;-90
2023/03/04 03:58:58;;;;;;;51.15;37.70;;;;;;;5.86;68.15;99687.50;4994691;28;20463;-91
2023/03/04 04:01:24;;;;;;;44.30;32.50;;;;;;;5.79;67.93;99647.13;4994865;28;20025;-90
2023/03/04 04:03:49;;;;;;;51.63;33.45;;;;;;;5.68;68.55;99645.53;4993573;28;20030;-90
2023/03/04 04:06:15;;;;;;;42.40;29.65;;;;;;;5.74;68.73;99663.28;4994661;28;20023;-90
2023/03/04 04:08:40;;;;;;;39.83;28.05;;;;;;;5.66;68.24;99647.47;4993354;28;20033;-91
2023/03/04 04:11:08;;;;;;;34.35;25.95;;;;;;;5.13;68.31;99544.28;4994550;28;20030;-91
2023/03/04 04:13:34;;;;;;;35.88;28.23;;;;;;;5.55;68.13;99616.22;4994379;28;20080;-90
2023/03/04 04:15:59;;;;;;;34.83;27.27;;;;;;;4.77;68.47;99518.78;4994245;28;20030;-88
2023/03/04 04:18:25;;;;;;;37.83;27.42;;;;;;;5.43;68.60;99620.00;4994154;28;20513;-90
2023/03/04 04:20:51;;;;;;;34.25;26.00;;;;;;;5.28;68.44;99596.06;4992947;28;20412;-91
2023/03/04 04:23:17;;;;;;;37.72;27.80;;;;;;;5.88;68.40;99679.50;4993989;28;20535;-90
2023/03/04 04:25:42;;;;;;;39.95;28.30;;;;;;;5.52;68.23;99632.22;4994018;28;20058;-90
2023/03/04 04:28:07;;;;;;;36.28;27.88;;;;;;;4.92;68.04;99562.81;4994308;28;20022;-90
2023/03/04 04:30:33;;;;;;;36.53;27.23;;;;;;;5.64;68.48;99651.19;4992814;28;20388;-91
2023/03/04 04:33:00;;;;;;;36.63;27.77;;;;;;;5.67;68.52;99654.38;4994050;28;20026;-90
2023/03/04 04:35:27;;;;;;;36.65;28.23;;;;;;;5.77;68.20;99677.91;4993873;28;20025;-89
2023/03/04 04:37:52;;;;;;;34.88;26.58;;;;;;;5.17;68.49;99585.75;4992953;28;20062;-90
2023/03/04 04:40:18;;;;;;;33.88;27.27;;;;;;;5.23;68.34;99589.63;4993009;28;20113;-90
2023/03/04 04:42:43;;;;;;;37.42;27.85;;;;;;;5.52;68.09;99634.84;4994176;28;20112;-90
2023/03/04 04:45:09;;;;;;;38.15;28.15;;;;;;;5.77;68.59;99682.31;4993945;28;20026;-90
2023/03/04 04:47:35;;;;;;;33.45;26.75;;;;;;;5.75;67.92;99678.03;4993710;28;20063;-89
2023/03/04 04:50:01;;;;;;;37.70;28.20;;;;;;;5.61;68.44;99673.28;4993684;28;20027;-89
2023/03/04 04:52:26;;;;;;;36.80;26.75;;;;;;;5.29;68.33;99628.31;4993547;28;20018;-90
2023/03/04 04:54:52;;;;;;;42.20;28.65;;;;;;;5.37;68.34;99633.66;4993644;28;20029;-89
2023/03/04 04:57:17;;;;;;;38.17;28.65;;;;;;;5.32;68.45;99635.88;4993774;28;20026;-91
2023/03/04 04:59:42;;;;;;;40.33;26.10;;;;;;;5.32;68.26;99628.03;4993619;28;20022;-90
2023/03/04 05:02:08;;;;;;;41.60;30.10;;;;;;;4.90;68.29;99549.88;4992789;28;20050;-91
2023/03/04 05:04:33;;;;;;;38.13;26.98;;;;;;;5.36;68.22;99617.13;4993287;28;20089;-92
2023/03/04 05:06:59;;;;;;;39.65;26.52;;;;;;;5.75;68.33;99672.81;4992044;28;20036;-90
2023/03/04 05:09:24;;;;;;;33.28;26.08;;;;;;;5.74;68.31;99683.44;4993445;28;20105;-90
2023/03/04 05:11:49;;;;;;;34.03;25.02;;;;;;;5.75;68.21;99691.13;4992162;28;20122;-91
2023/03/04 05:14:15;;;;;;;35.72;26.48;;;;;;;5.71;67.50;99673.22;4993671;28;20021;-89
2023/03/04 05:16:40;;;;;;;38.92;27.13;;;;;;;4.92;67.89;99553.19;4993366;28;20030;-89
2023/03/04 05:19:06;;;;;;;33.55;25.70;;;;;;;4.50;67.86;99492.56;4993270;28;20030;-90
2023/03/04 05:21:31;;;;;;;35.80;27.00;;;;;;;5.23;68.24;99615.78;4991944;28;20034;-89
2023/03/04 05:23:57;;;;;;;35.35;25.67;;;;;;;5.19;68.47;99611.78;4991586;28;20026;-88
2023/03/04 05:26:22;;;;;;;35.17;25.73;;;;;;;5.69;67.79;99678.63;4992925;28;20487;-90
2023/03/04 05:28:47;;;;;;;33.67;25.95;;;;;;;5.18;67.55;99602.28;4991645;28;20026;-90
2023/03/04 05:31:13;;;;;;;32.72;24.58;;;;;;;5.02;67.96;99553.16;4991757;28;20033;-90
2023/03/04 05:33:39;;;;;;;29.50;23.25;;;;;;;5.70;68.14;99667.16;4993024;28;20080;-90
2023/03/04 05:36:05;;;;;;;30.42;22.88;;;;;;;4.77;67.93;99523.19;4992985;28;20419;-91
2023/03/04 05:38:32;;;;;;;33.95;25.85;;;;;;;5.69;68.20;99688.28;4992832;28;20495;-90
2023/03/04 05:40:59;;;;;;;32.70;25.23;;;;;;;5.28;67.77;99597.88;4991469;28;20030;-90
2023/03/04 05:43:26;;;;;;;38.85;26.88;;;;;;;5.52;67.98;99642.69;4992658;28;20100;-92
2023/03/04 05:45:53;;;;;;;39.28;27.73;;;;;;;5.34;68.07;99626.91;4991583;28;20037;-91
2023/03/04 05:48:19;;;;;;;42.47;30.17;;;;;;;5.81;68.17;99681.06;4992664;28;20029;-91
2023/03/04 05:50:44;;;;;;;46.65;32.15;;;;;;;5.27;67.83;99622.38;4992479;28;20026;-91
2023/03/04 05:53:10;;;;;;;50.25;36.17;;;;;;;5.46;67.77;99631.97;4991007;28;20028;-90
2023/03/04 05:55:35;;;;;;;44.97;33.15;;;;;;;5.55;68.04;99654.69;4991143;28;20018;-90
2023/03/04 05:58:00;;;;;;;48.20;34.95;;;;;;;5.36;67.80;99611.06;4992255;28;20083;-90
2023/03/04 06:00:26;;;;;;;41.92;31.45;;;;;;;5.98;67.90;99691.66;4990957;28;20109;-90
2023/03/04 06:02:52;;;;;;;45.58;33.45;;;;;;;6.03;68.39;99713.00;4992289;28;20069;-89
2023/03/04 06:05:18;;;;;;;53.58;36.40;;;;;;;5.97;67.77;99690.00;4992271;28;20030;-90
2023/03/04 06:07:44;;;;;;;66.60;43.22;;;;;;;5.53;67.62;99631.25;4992389;28;20034;-89
2023/03/04 06:10:12;;;;;;;61.72;41.40;;;;;;;6.16;67.79;99712.69;4992708;28;20029;-90
2023/03/04 06:12:38;;;;;;;46.80;35.28;;;;;;;5.76;67.91;99626.47;4990974;28;20022;-90
2023/03/04 06:15:04;;;;;;;47.20;35.15;;;;;;;6.21;67.98;99717.47;4991581;28;20018;-89
2023/03/04 06:17:30;;;;;;;40.25;29.63;;;;;;;6.26;67.38;99697.72;4990811;28;20022;-90
2023/03/04 06:19:56;;;;;;;37.50;27.58;;;;;;;5.58;67.54;99612.50;4990741;28;20022;-91
2023/03/04 06:22:21;;;;;;;43.17;30.50;;;;;;;4.45;67.34;99422.38;4990729;28;20081;-89
2023/03/04 06:24:47;;;;;;;40.80;28.40;;;;;;;5.92;67.92;99654.69;4991724;28;20054;-90
2023/03/04 06:27:12;;;;;;;36.47;26.55;;;;;;;6.06;67.63;99685.69;4991945;28;20029;-91
2023/03/04 06:29:38;;;;;;;33.03;25.38;;;;;;;6.16;67.56;99693.50;4992074;28;20022;-90
2023/03/04 06:32:04;;;;;;;34.45;25.30;;;;;;;5.74;68.03;99631.84;4992164;28;20101;-90
2023/03/04 06:34:30;;;;;;;29.90;22.42;;;;;;;5.64;67.62;99589.16;4992120;28;20025;-89
2023/03/04 06:36:55;;;;;;;27.67;21.38;;;;;;;5.17;67.33;99520.31;4990593;28;20030;-89
2023/03/04 06:39:20;;;;;;;29.35;23.30;;;;;;;5.92;67.80;99637.19;4990634;28;20018;-88
2023/03/04 06:41:46;;;;;;;35.55;24.33;;;;;;;5.94;67.73;99640.47;4990538;28;20011;-89
2023/03/04 06:44:11;;;;;;;28.13;23.40;;;;;;;6.31;67.79;99715.63;4991872;28;20045;-91
2023/03/04 06:46:37;;;;;;;35.67;26.77;;;;;;;5.88;67.95;99640.19;4992087;28;20172;-91
2023/03/04 06:49:02;;;;;;;40.60;28.98;;;;;;;6.18;67.94;99684.53;4992048;28;20030;-91
2023/03/04 06:51:29;;;;;;;37.53;26.75;;;;;;;6.06;68.13;99651.63;4991985;28;20396;-91
2023/03/04 06:53:54;;;;;;;36.40;27.00;;;;;;;5.48;68.25;99549.69;4990547;28;20487;-90
2023/03/04 06:56:20;;;;;;;40.08;30.33;;;;;;;6.65;67.71;99734.19;4990560;28;20089;-90
2023/03/04 06:58:45;;;;;;;41.88;31.08;;;;;;;5.94;67.56;99616.06;4991769;28;20030;-91
2023/03/04 07:01:16;;;;;;;41.45;29.85;;;;;;;6.37;67.58;99691.44;4991866;28;20033;-90
2023/03/04 07:03:41;;;;;;;42.38;30.05;;;;;;;6.44;67.65;99692.50;4990534;28;20030;-90
2023/03/04 07:06:10;;;;;;;45.03;29.80;;;;;;;6.45;67.71;99674.97;4990506;28;20026;-90
2023/03/04 07:08:35;;;;;;;45.15;32.70;;;;;;;6.80;67.79;99743.25;4986766;28;20602;-89
2023/03/04 07:11:01;;;;;;;43.10;32.58;;;;;;;6.38;68.12;99641.47;4980617;28;20118;-90
2023/03/04 07:13:26;;;;;;;42.65;32.50;;;;;;;6.29;67.62;99637.13;4988809;28;20554;-88
2023/03/04 07:15:52;;;;;;;41.08;30.35;;;;;;;6.21;67.77;99604.75;4988445;28;20023;-88
2023/03/04 07:18:17;;;;;;;39.90;28.08;;;;;;;6.53;67.59;99646.19;4990722;28;20026;-88
2023/03/04 07:20:43;;;;;;;41.63;28.30;;;;;;;6.76;68.01;99688.59;4989364;28;20076;-88
2023/03/04 07:23:08;;;;;;;44.38;30.63;;;;;;;6.23;67.79;99595.75;4991068;28;20034;-88
2023/03/04 07:25:34;;;;;;;44.38;31.75;;;;;;;6.75;67.55;99682.50;4990173;28;20043;-88
2023/03/04 07:27:59;;;;;;;36.75;27.52;;;;;;;6.36;67.41;99605.88;4981771;28;20038;-88
2023/03/04 07:30:25;;;;;;;36.55;27.73;;;;;;;6.35;68.26;99597.19;4980707;28;20073;-87
2023/03/04 07:32:50;;;;;;;36.65;27.33;;;;;;;6.78;68.04;99657.78;4993870;28;20427;-88
2023/03/04 07:35:16;;;;;;;36.80;26.58;;;;;;;6.44;67.51;99573.66;4993588;28;20018;-88
2023/03/04 07:37:41;;;;;;;36.00;27.42;;;;;;;6.94;67.54;99652.66;4990170;28;20062;-90
2023/03/04 07:40:08;;;;;;;36.33;27.60;;;;;;;7.46;68.14;99723.63;4993580;28;20022;-90
2023/03/04 07:42:33;;;;;;;35.03;27.98;;;;;;;7.00;67.94;99652.03;4991780;28;20570;-90
2023/03/04 07:45:00;;;;;;;34.05;26.17;;;;;;;6.63;67.72;99571.69;4992080;28;20105;-89
2023/03/04 07:47:26;;;;;;;33.83;26.52;;;;;;;7.58;67.85;99707.47;4994783;28;20023;-90
2023/03/04 07:49:52;;;;;;;36.72;27.20;;;;;;;7.39;68.19;99678.75;4994803;28;20031;-90
2023/03/04 07:52:20;;;;;;;37.53;28.55;;;;;;;7.20;67.73;99632.50;4994383;28;20022;-90
2023/03/04 07:54:46;;;;;;;37.97;28.90;;;;;;;7.07;67.70;99616.31;4988498;28;20014;-90
2023/03/04 07:57:11;;;;;;;41.17;30.02;;;;;;;7.24;68.10;99630.38;4994057;28;20037;-90
2023/03/04 07:59:36;;;;;;;41.83;30.20;;;;;;;7.53;68.02;99648.47;4993876;28;20026;-90
2023/03/04 08:02:02;;;;;;;35.78;27.65;;;;;;;7.43;67.82;99624.94;5007629;28;20026;-90
2023/03/04 08:04:27;;;;;;;35.20;28.65;;;;;;;7.44;67.83;99616.09;4994075;28;20019;-89
2023/03/04 08:06:53;;;;;;;36.08;27.77;;;;;;;7.81;67.36;99686.72;4994580;28;20026;-90
2023/03/04 08:09:18;;;;;;;35.95;27.60;;;;;;;7.45;67.27;99596.72;4994366;28;20121;-90
2023/03/04 08:11:44;;;;;;;37.80;29.75;;;;;;;7.83;67.52;99637.47;4991824;28;20023;-91
2023/03/04 08:14:11;;;;;;;38.05;29.30;;;;;;;7.74;67.28;99613.94;4992911;28;20022;-89
2023/03/04 08:16:37;;;;;;;42.85;31.77;;;;;;;8.54;67.41;99717.81;4992168;28;20026;-90
2023/03/04 08:19:03;;;;;;;40.97;32.17;;;;;;;8.60;66.95;99719.78;4990521;28;20137;-90
2023/03/04 08:21:29;;;;;;;45.63;32.83;;;;;;;8.11;66.87;99643.31;4994106;28;20415;-90
2023/03/04 08:23:58;;;;;;;44.65;31.60;;;;;;;8.67;67.11;99720.78;4993898;28;20466;-87
2023/03/04 08:26:30;;;;;;;41.15;32.90;;;;;;;8.35;66.86;99660.19;4994120;28;20030;-88
2023/03/04 08:28:56;;;;;;;48.05;34.33;;;;;;;8.85;66.91;99724.13;4990627;28;20029;-88
2023/03/04 08:31:22;;;;;;;44.60;35.15;;;;;;;8.99;66.74;99732.38;4993138;28;20089;-88
2023/03/04 08:33:48;;;;;;;40.28;31.90;;;;;;;8.46;66.83;99625.69;4993967;28;20435;-87
2023/03/04 08:36:14;;;;;;;32.30;24.80;;;;;;;8.97;66.17;99673.78;4990796;28;20033;-88
2023/03/04 08:38:40;;;;;;;33.65;26.52;;;;;;;9.54;65.69;99725.47;4993401;28;20033;-88
2023/03/04 08:41:06;;;;;;;30.48;25.08;;;;;;;9.31;65.75;99655.16;4992378;28;20034;-88
2023/03/04 08:43:32;;;;;;;24.85;18.05;;;;;;;9.22;65.11;99618.28;4993802;28;20023;-87
2023/03/04 08:45:57;;;;;;;18.33;15.45;;;;;;;9.92;64.83;99719.63;4989945;28;20029;-87
2023/03/04 08:48:23;;;;;;;16.38;14.63;;;;;;;10.00;64.59;99709.88;4992573;28;20026;-89
2023/03/04 08:50:49;;;;;;;18.48;15.02;;;;;;;10.12;64.49;99712.97;4991982;28;20033;-89
2023/03/04 08:53:16;;;;;;;20.20;17.08;;;;;;;9.22;64.12;99530.53;4991037;28;20101;-90
2023/03/04 08:55:42;;;;;;;18.83;16.00;;;;;;;10.32;64.46;99703.69;5000863;28;20419;-89
2023/03/04 08:58:09;;;;;;;22.52;18.63;;;;;;;10.39;63.73;99717.84;4993891;28;20022;-89
2023/03/04 09:00:37;;;;;;;21.58;18.35;;;;;;;10.42;63.92;99703.50;4974031;28;20484;-89
2023/03/04 09:03:03;;;;;;;22.85;17.73;;;;;;;10.30;63.72;99691.66;4995673;28;20410;-89
2023/03/04 09:05:29;;;;;;;21.52;17.17;;;;;;;10.42;63.44;99685.03;5008536;28;20030;-89
2023/03/04 09:07:55;;;;;;;21.23;18.42;;;;;;;10.25;63.18;99642.03;4994744;28;20034;-87
2023/03/04 09:10:21;;;;;;;22.85;17.42;;;;;;;9.86;63.06;99574.28;4991442;28;20034;-87
2023/03/04 09:12:46;;;;;;;21.70;16.92;;;;;;;10.41;63.29;99676.28;4990757;28;20030;-87
2023/03/04 09:15:12;;;;;;;18.70;16.70;;;;;;;10.54;62.78;99685.44;4990836;28;20101;-90
2023/03/04 09:17:39;;;;;;;19.38;16.95;;;;;;;9.45;63.32;99523.53;4989861;28;20026;-87
2023/03/04 09:20:07;;;;;;;19.75;17.60;;;;;;;10.10;63.11;99620.00;4993042;28;20034;-87
2023/03/04 09:22:33;;;;;;;23.55;19.90;;;;;;;10.32;63.58;99652.72;4991677;28;20018;-89
2023/03/04 09:24:58;;;;;;;19.92;17.00;;;;;;;10.43;62.65;99658.44;4992637;28;20146;-89
2023/03/04 09:27:23;;;;;;;22.15;18.40;;;;;;;10.75;62.16;99678.53;4992920;28;20415;-89
2023/03/04 09:29:49;;;;;;;25.42;19.90;;;;;;;10.59;62.33;99622.38;4985589;28;20025;-89
2023/03/04 09:32:14;;;;;;;22.85;18.73;;;;;;;9.97;62.36;99490.50;4989248;28;20115;-89
2023/03/04 09:34:40;;;;;;;25.67;20.52;;;;;;;11.20;61.81;99642.53;4986866;28;20027;-89
2023/03/04 09:37:05;;;;;;;24.30;19.20;;;;;;;10.60;61.51;99511.31;4989169;28;20034;-88
2023/03/04 09:39:31;;;;;;;21.02;18.75;;;;;;;10.86;61.08;99539.13;4989210;28;20025;-88
2023/03/04 09:41:58;;;;;;;21.25;18.90;;;;;;;11.18;60.53;99591.69;5004903;28;20076;-87
2023/03/04 09:44:36;;;;;;;18.00;14.45;;;;;;;11.18;60.53;99614.66;4990356;28;20419;-88
2023/03/04 09:47:10;;;;;;;25.85;21.33;;;;;;;11.37;59.75;99641.38;4988707;28;20430;-89
2023/03/04 09:49:39;;;;;;;24.27;20.63;;;;;;;11.29;60.89;99644.09;4988644;28;20117;-86
2023/03/04 09:52:13;;;;;;;25.98;21.05;;;;;;;11.23;60.79;99641.34;4987605;28;20237;-87
2023/03/04 09:55:02;;;;;;;21.10;17.90;;;;;;;11.15;60.37;99631.69;4982556;28;20115;-86
2023/03/04 09:58:08;;;;;;;27.65;20.83;;;;;;;10.93;60.28;99619.31;4989178;28;20472;-87
2023/03/04 10:00:43;;;;;;;21.75;17.05;;;;;;;11.05;60.34;99626.63;4991294;28;20060;-86
2023/03/04 10:03:12;;;;;;;19.63;17.55;;;;;;;11.08;60.54;99628.91;4988367;28;20041;-86
2023/03/04 10:05:59;;;;;;;23.23;19.02;;;;;;;11.19;60.45;99622.41;4986115;28;20049;-86
2023/03/04 10:08:46;;;;;;;24.27;18.73;;;;;;;11.39;59.27;99620.88;4991252;28;20030;-86
2023/03/04 10:11:22;;;;;;;20.98;17.20;;;;;;;11.61;59.38;99616.50;4986358;28;20431;-88
2023/03/04 10:14:01;;;;;;;18.00;15.07;;;;;;;11.86;58.68;99613.59;4991247;28;20022;-88
2023/03/04 10:16:38;;;;;;;16.10;14.40;;;;;;;11.70;58.07;99581.00;4983238;28;20519;-88
2023/03/04 10:19:25;;;;;;;16.88;14.68;;;;;;;11.85;57.39;99607.47;4980802;28;20105;-88
2023/03/04 10:21:51;;;;;;;18.75;15.00;;;;;;;11.93;57.45;99623.28;4990947;28;20061;-87
2023/03/04 10:24:21;;;;;;;19.13;15.63;;;;;;;11.89;57.53;99592.06;4990664;28;20078;-89
2023/03/04 10:26:52;;;;;;;21.67;17.58;;;;;;;11.84;57.82;99582.03;4990312;28;20018;-88
2023/03/04 10:29:20;;;;;;;19.83;16.55;;;;;;;11.56;57.88;99530.78;4987191;28;20037;-88
2023/03/04 10:31:48;;;;;;;19.05;16.88;;;;;;;12.14;57.23;99597.88;4985916;28;20036;-88
2023/03/04 10:34:15;;;;;;;18.60;16.60;;;;;;;11.73;57.11;99489.91;4990920;28;20081;-89
2023/03/04 10:37:01;;;;;;;18.35;16.35;;;;;;;11.99;56.75;99515.88;4988121;28;20026;-88
2023/03/04 10:39:32;;;;;;;17.17;13.80;;;;;;;11.58;56.29;99470.59;4989408;28;20037;-88
2023/03/04 10:42:02;;;;;;;16.92;14.80;;;;;;;12.24;57.02;99571.91;4990950;28;20042;-88
2023/03/04 10:44:29;;;;;;;16.80;14.38;;;;;;;12.19;56.63;99569.00;4991671;28;20026;-88
2023/03/04 10:46:56;;;;;;;19.25;16.95;;;;;;;12.13;56.71;99567.13;4988492;28;20041;-88
2023/03/04 10:49:23;;;;;;;19.70;15.50;;;;;;;11.60;56.83;99495.03;4991337;28;20057;-88
2023/03/04 10:51:55;;;;;;;15.43;13.68;;;;;;;11.97;57.54;99553.09;4985667;28;20032;-88
2023/03/04 10:54:48;;;;;;;20.35;14.93;;;;;;;11.91;56.62;99559.16;4988543;28;20764;-88
2023/03/04 10:57:17;;;;;;;19.00;15.43;;;;;;;11.26;57.45;99467.38;4988968;28;20031;-88
2023/03/04 10:59:56;;;;;;;16.48;13.35;;;;;;;11.35;57.09;99466.28;4990315;28;20030;-88
2023/03/04 11:02:33;;;;;;;16.67;13.52;;;;;;;11.88;57.82;99556.03;4991380;28;20023;-88
2023/03/04 11:05:13;;;;;;;12.52;10.98;;;;;;;11.87;57.78;99546.44;4989227;28;20025;-88
2023/03/04 11:07:43;;;;;;;13.90;10.98;;;;;;;11.63;57.37;99495.47;4991544;28;20033;-88
2023/03/04 11:10:23;;;;;;;16.25;13.55;;;;;;;11.86;58.33;99537.69;4995446;28;20026;-89
2023/03/04 11:12:54;;;;;;;17.08;13.35;;;;;;;11.68;59.24;99511.63;4975502;28;20110;-88
2023/03/04 11:15:26;;;;;;;15.88;12.35;;;;;;;11.01;59.56;99429.84;4989245;28;20022;-89
2023/03/04 11:17:55;;;;;;;15.40;13.80;;;;;;;10.95;60.41;99433.22;4989551;28;20041;-89
2023/03/04 11:20:29;;;;;;;14.00;12.50;;;;;;;10.95;60.49;99419.19;5011894;28;20531;-90
2023/03/04 11:22:59;;;;;;;15.32;13.73;;;;;;;11.30;60.65;99508.28;4997376;28;20028;-90
2023/03/04 11:25:29;;;;;;;17.20;15.40;;;;;;;11.08;60.83;99461.63;4990320;28;20048;-89
2023/03/04 11:27:59;;;;;;;15.80;13.68;;;;;;;11.43;60.67;99505.00;4998050;28;20037;-89